Pagina principale
METAR-TAF:

METAR-TAF

Aeroporti :

Belmar / Farmingdale, New Jersey, Stati Uniti

latitudine: 40-11N, longitudine: 074-08W, altezza: 48 m

Osservazione

Il bollettino è stato emesso 15 minuti fa, alle 14:48 UTC
Vento 7 kt da sud
Temperature 16°C
Umidità 94%
Pressione 1020 hPa
Visibilità: 12.9 km
Nuvoloso ad un'altezza di 1400 ft
Cielo coperto ad un'altezza di 1800 ft
pioggia debole

METAR: KBLM 151448Z AUTO 19007KT 8SM -RA BKN014 OVC018 16/15 A3011 RMK AO2 P0005

Ora: 11:03 (15:03 UTC)


TAF: mancante

Osservazioni e previsioni meteorologiche di più di 4000 aeroporti (messaggi METAR e TAF).

Le stazioni disponibili sono rappresentate dai dischi gialli e rossi sulla carta.

Puntare il mouse per vedere il nome della stazione.

Clicca sopra per visualizzare le osservazioni e previsioni meteorologiche.

Per cambiare la mappa : fare clic sui pulsanti verdi con una croce nera per ingrandire, il pulsante verde con un trattino per diminuire, o sulla freccia verde per le mappe adiacenti.


METAR-TAF: